sensor_id;sensor_type;location;lat;lon;timestamp;P1;durP1;ratioP1;P2;durP2;ratioP2
34805;SDS011;65084;42.196;25.326;2022-12-10T00:02:17;110.75;;;36.65;;
34805;SDS011;65084;42.196;25.326;2022-12-10T00:04:44;117.90;;;36.58;;
34805;SDS011;65084;42.196;25.326;2022-12-10T00:07:12;151.32;;;37.72;;
34805;SDS011;65084;42.196;25.326;2022-12-10T00:09:39;155.20;;;35.60;;
34805;SDS011;65084;42.196;25.326;2022-12-10T00:12:06;120.95;;;36.53;;
34805;SDS011;65084;42.196;25.326;2022-12-10T00:14:33;110.65;;;35.40;;
34805;SDS011;65084;42.196;25.326;2022-12-10T00:17:01;180.52;;;37.15;;
34805;SDS011;65084;42.196;25.326;2022-12-10T00:19:29;144.48;;;36.15;;
34805;SDS011;65084;42.196;25.326;2022-12-10T00:21:57;132.27;;;38.28;;
34805;SDS011;65084;42.196;25.326;2022-12-10T00:24:24;177.65;;;36.92;;
34805;SDS011;65084;42.196;25.326;2022-12-10T00:26:51;151.32;;;37.03;;
34805;SDS011;65084;42.196;25.326;2022-12-10T00:29:19;107.85;;;34.20;;
34805;SDS011;65084;42.196;25.326;2022-12-10T00:31:46;201.23;;;35.80;;
34805;SDS011;65084;42.196;25.326;2022-12-10T00:34:13;196.07;;;37.83;;
34805;SDS011;65084;42.196;25.326;2022-12-10T00:36:42;145.70;;;36.95;;
34805;SDS011;65084;42.196;25.326;2022-12-10T00:39:10;212.65;;;39.00;;
34805;SDS011;65084;42.196;25.326;2022-12-10T00:41:38;106.10;;;36.00;;
34805;SDS011;65084;42.196;25.326;2022-12-10T00:44:05;150.82;;;38.38;;
34805;SDS011;65084;42.196;25.326;2022-12-10T00:46:33;130.63;;;37.72;;
34805;SDS011;65084;42.196;25.326;2022-12-10T00:49:00;262.90;;;37.60;;
34805;SDS011;65084;42.196;25.326;2022-12-10T00:51:28;165.30;;;37.67;;
34805;SDS011;65084;42.196;25.326;2022-12-10T00:53:57;141.30;;;35.97;;
34805;SDS011;65084;42.196;25.326;2022-12-10T00:56:26;102.72;;;35.97;;
34805;SDS011;65084;42.196;25.326;2022-12-10T00:58:53;112.30;;;37.00;;
34805;SDS011;65084;42.196;25.326;2022-12-10T01:01:21;118.25;;;35.85;;
34805;SDS011;65084;42.196;25.326;2022-12-10T01:03:49;321.00;;;38.92;;
34805;SDS011;65084;42.196;25.326;2022-12-10T01:06:18;250.60;;;41.83;;
34805;SDS011;65084;42.196;25.326;2022-12-10T01:08:46;118.60;;;36.63;;
34805;SDS011;65084;42.196;25.326;2022-12-10T01:11:15;164.40;;;37.33;;
34805;SDS011;65084;42.196;25.326;2022-12-10T01:13:43;133.45;;;37.80;;
34805;SDS011;65084;42.196;25.326;2022-12-10T01:16:11;106.90;;;36.22;;
34805;SDS011;65084;42.196;25.326;2022-12-10T01:18:39;128.07;;;37.13;;
34805;SDS011;65084;42.196;25.326;2022-12-10T01:21:07;126.85;;;35.72;;
34805;SDS011;65084;42.196;25.326;2022-12-10T01:23:36;183.75;;;36.42;;
34805;SDS011;65084;42.196;25.326;2022-12-10T01:26:04;230.60;;;39.20;;
34805;SDS011;65084;42.196;25.326;2022-12-10T01:28:34;132.77;;;34.88;;
34805;SDS011;65084;42.196;25.326;2022-12-10T01:31:01;176.07;;;35.65;;
34805;SDS011;65084;42.196;25.326;2022-12-10T01:33:29;170.95;;;34.72;;
34805;SDS011;65084;42.196;25.326;2022-12-10T01:35:56;98.68;;;33.90;;
34805;SDS011;65084;42.196;25.326;2022-12-10T01:38:23;180.95;;;34.58;;
34805;SDS011;65084;42.196;25.326;2022-12-10T01:40:51;274.65;;;35.00;;
34805;SDS011;65084;42.196;25.326;2022-12-10T01:43:18;156.70;;;34.55;;
34805;SDS011;65084;42.196;25.326;2022-12-10T01:45:47;151.00;;;35.15;;
34805;SDS011;65084;42.196;25.326;2022-12-10T01:48:14;203.93;;;33.50;;
34805;SDS011;65084;42.196;25.326;2022-12-10T01:50:42;111.80;;;32.42;;
34805;SDS011;65084;42.196;25.326;2022-12-10T01:53:09;144.65;;;34.53;;
34805;SDS011;65084;42.196;25.326;2022-12-10T01:55:39;151.60;;;33.60;;
34805;SDS011;65084;42.196;25.326;2022-12-10T01:58:06;163.75;;;34.58;;
34805;SDS011;65084;42.196;25.326;2022-12-10T02:00:34;100.80;;;33.03;;
34805;SDS011;65084;42.196;25.326;2022-12-10T02:03:04;184.90;;;37.95;;
34805;SDS011;65084;42.196;25.326;2022-12-10T02:05:36;179.98;;;35.53;;
34805;SDS011;65084;42.196;25.326;2022-12-10T02:08:06;183.23;;;35.35;;
34805;SDS011;65084;42.196;25.326;2022-12-10T02:10:41;156.80;;;34.95;;
34805;SDS011;65084;42.196;25.326;2022-12-10T02:13:10;192.15;;;32.33;;
34805;SDS011;65084;42.196;25.326;2022-12-10T02:15:39;116.88;;;30.30;;
34805;SDS011;65084;42.196;25.326;2022-12-10T02:18:10;120.38;;;30.80;;
34805;SDS011;65084;42.196;25.326;2022-12-10T02:20:39;139.60;;;32.28;;
34805;SDS011;65084;42.196;25.326;2022-12-10T02:23:08;123.57;;;29.20;;
34805;SDS011;65084;42.196;25.326;2022-12-10T02:25:38;118.00;;;25.58;;
34805;SDS011;65084;42.196;25.326;2022-12-10T02:28:09;78.50;;;24.05;;
34805;SDS011;65084;42.196;25.326;2022-12-10T02:30:40;56.30;;;21.98;;
34805;SDS011;65084;42.196;25.326;2022-12-10T02:33:08;43.00;;;19.77;;
34805;SDS011;65084;42.196;25.326;2022-12-10T02:35:35;41.85;;;16.98;;
34805;SDS011;65084;42.196;25.326;2022-12-10T02:38:07;42.03;;;17.60;;
34805;SDS011;65084;42.196;25.326;2022-12-10T02:40:35;34.28;;;17.38;;
34805;SDS011;65084;42.196;25.326;2022-12-10T02:43:05;36.85;;;16.02;;
34805;SDS011;65084;42.196;25.326;2022-12-10T02:45:33;31.52;;;14.95;;
34805;SDS011;65084;42.196;25.326;2022-12-10T02:48:02;34.22;;;16.55;;
34805;SDS011;65084;42.196;25.326;2022-12-10T02:50:31;30.00;;;15.80;;
34805;SDS011;65084;42.196;25.326;2022-12-10T02:52:58;27.38;;;14.82;;
34805;SDS011;65084;42.196;25.326;2022-12-10T02:55:25;28.08;;;14.30;;
34805;SDS011;65084;42.196;25.326;2022-12-10T02:57:57;34.85;;;16.25;;
34805;SDS011;65084;42.196;25.326;2022-12-10T03:00:30;30.38;;;14.40;;
34805;SDS011;65084;42.196;25.326;2022-12-10T03:03:02;31.05;;;15.32;;
34805;SDS011;65084;42.196;25.326;2022-12-10T03:05:35;30.30;;;15.77;;
34805;SDS011;65084;42.196;25.326;2022-12-10T03:08:04;36.20;;;16.50;;
34805;SDS011;65084;42.196;25.326;2022-12-10T03:10:37;39.85;;;16.77;;
34805;SDS011;65084;42.196;25.326;2022-12-10T03:13:08;29.40;;;15.68;;
34805;SDS011;65084;42.196;25.326;2022-12-10T03:15:38;55.45;;;16.30;;
34805;SDS011;65084;42.196;25.326;2022-12-10T03:18:06;39.92;;;17.17;;
34805;SDS011;65084;42.196;25.326;2022-12-10T03:20:36;51.92;;;16.35;;
34805;SDS011;65084;42.196;25.326;2022-12-10T03:23:05;64.60;;;16.25;;
34805;SDS011;65084;42.196;25.326;2022-12-10T03:25:34;37.38;;;16.50;;
34805;SDS011;65084;42.196;25.326;2022-12-10T03:28:03;38.15;;;15.75;;
34805;SDS011;65084;42.196;25.326;2022-12-10T03:30:31;66.95;;;16.77;;
34805;SDS011;65084;42.196;25.326;2022-12-10T03:32:59;38.92;;;16.58;;
34805;SDS011;65084;42.196;25.326;2022-12-10T03:35:26;44.70;;;16.63;;
34805;SDS011;65084;42.196;25.326;2022-12-10T03:37:55;46.47;;;16.60;;
34805;SDS011;65084;42.196;25.326;2022-12-10T03:40:23;55.15;;;17.65;;
34805;SDS011;65084;42.196;25.326;2022-12-10T03:42:51;53.88;;;17.42;;
34805;SDS011;65084;42.196;25.326;2022-12-10T03:45:18;59.78;;;17.98;;
34805;SDS011;65084;42.196;25.326;2022-12-10T03:47:46;42.22;;;16.63;;
34805;SDS011;65084;42.196;25.326;2022-12-10T03:50:14;43.80;;;16.92;;
34805;SDS011;65084;42.196;25.326;2022-12-10T03:52:41;42.72;;;17.88;;
34805;SDS011;65084;42.196;25.326;2022-12-10T03:55:10;84.03;;;19.45;;
34805;SDS011;65084;42.196;25.326;2022-12-10T03:57:37;75.05;;;18.38;;
34805;SDS011;65084;42.196;25.326;2022-12-10T04:00:05;84.85;;;19.98;;
34805;SDS011;65084;42.196;25.326;2022-12-10T04:02:34;56.60;;;18.80;;
34805;SDS011;65084;42.196;25.326;2022-12-10T04:05:01;66.85;;;19.60;;
34805;SDS011;65084;42.196;25.326;2022-12-10T04:07:29;44.80;;;19.38;;
34805;SDS011;65084;42.196;25.326;2022-12-10T04:09:56;48.50;;;19.13;;
34805;SDS011;65084;42.196;25.326;2022-12-10T04:12:25;68.00;;;18.13;;
34805;SDS011;65084;42.196;25.326;2022-12-10T04:14:52;95.82;;;18.90;;
34805;SDS011;65084;42.196;25.326;2022-12-10T04:17:37;44.78;;;18.50;;
34805;SDS011;65084;42.196;25.326;2022-12-10T04:20:05;54.83;;;18.02;;
34805;SDS011;65084;42.196;25.326;2022-12-10T04:22:53;64.30;;;19.10;;
34805;SDS011;65084;42.196;25.326;2022-12-10T04:25:38;81.88;;;18.92;;
34805;SDS011;65084;42.196;25.326;2022-12-10T04:28:25;83.20;;;18.98;;
34805;SDS011;65084;42.196;25.326;2022-12-10T04:30:52;53.08;;;21.27;;
34805;SDS011;65084;42.196;25.326;2022-12-10T04:33:19;73.18;;;20.83;;
34805;SDS011;65084;42.196;25.326;2022-12-10T04:35:47;78.55;;;20.85;;
34805;SDS011;65084;42.196;25.326;2022-12-10T04:38:14;71.90;;;20.98;;
34805;SDS011;65084;42.196;25.326;2022-12-10T04:40:41;80.47;;;21.85;;
34805;SDS011;65084;42.196;25.326;2022-12-10T04:43:08;69.30;;;19.65;;
34805;SDS011;65084;42.196;25.326;2022-12-10T04:45:37;65.18;;;21.15;;
34805;SDS011;65084;42.196;25.326;2022-12-10T04:48:04;52.33;;;21.15;;
34805;SDS011;65084;42.196;25.326;2022-12-10T04:50:32;58.55;;;20.73;;
34805;SDS011;65084;42.196;25.326;2022-12-10T04:53:00;72.65;;;20.52;;
34805;SDS011;65084;42.196;25.326;2022-12-10T04:55:27;49.65;;;19.95;;
34805;SDS011;65084;42.196;25.326;2022-12-10T04:57:54;40.55;;;19.70;;
34805;SDS011;65084;42.196;25.326;2022-12-10T05:00:22;39.60;;;19.23;;
34805;SDS011;65084;42.196;25.326;2022-12-10T05:02:51;40.72;;;18.70;;
34805;SDS011;65084;42.196;25.326;2022-12-10T05:05:18;41.00;;;18.67;;
34805;SDS011;65084;42.196;25.326;2022-12-10T05:07:45;41.92;;;18.40;;
34805;SDS011;65084;42.196;25.326;2022-12-10T05:10:13;50.97;;;18.08;;
34805;SDS011;65084;42.196;25.326;2022-12-10T05:12:40;39.45;;;17.85;;
34805;SDS011;65084;42.196;25.326;2022-12-10T05:15:08;45.13;;;16.90;;
34805;SDS011;65084;42.196;25.326;2022-12-10T05:17:35;40.00;;;17.88;;
34805;SDS011;65084;42.196;25.326;2022-12-10T05:20:04;44.40;;;16.65;;
34805;SDS011;65084;42.196;25.326;2022-12-10T05:22:31;43.25;;;17.48;;
34805;SDS011;65084;42.196;25.326;2022-12-10T05:25:16;42.47;;;19.52;;
34805;SDS011;65084;42.196;25.326;2022-12-10T05:27:44;35.47;;;17.42;;
34805;SDS011;65084;42.196;25.326;2022-12-10T05:30:11;35.50;;;18.23;;
34805;SDS011;65084;42.196;25.326;2022-12-10T05:32:39;48.03;;;17.98;;
34805;SDS011;65084;42.196;25.326;2022-12-10T05:35:08;39.88;;;19.55;;
34805;SDS011;65084;42.196;25.326;2022-12-10T05:37:35;39.97;;;19.25;;
34805;SDS011;65084;42.196;25.326;2022-12-10T05:40:02;43.35;;;22.23;;
34805;SDS011;65084;42.196;25.326;2022-12-10T05:42:30;42.33;;;22.60;;
34805;SDS011;65084;42.196;25.326;2022-12-10T05:44:57;37.22;;;20.55;;
34805;SDS011;65084;42.196;25.326;2022-12-10T05:47:24;38.03;;;20.20;;
34805;SDS011;65084;42.196;25.326;2022-12-10T05:49:52;33.35;;;16.48;;
34805;SDS011;65084;42.196;25.326;2022-12-10T05:52:20;39.00;;;18.35;;
34805;SDS011;65084;42.196;25.326;2022-12-10T05:54:47;33.38;;;18.63;;
34805;SDS011;65084;42.196;25.326;2022-12-10T05:57:15;35.33;;;19.88;;
34805;SDS011;65084;42.196;25.326;2022-12-10T05:59:42;43.88;;;20.23;;
34805;SDS011;65084;42.196;25.326;2022-12-10T06:02:09;45.10;;;20.15;;
34805;SDS011;65084;42.196;25.326;2022-12-10T06:04:37;46.10;;;20.10;;
34805;SDS011;65084;42.196;25.326;2022-12-10T06:07:04;44.08;;;20.05;;
34805;SDS011;65084;42.196;25.326;2022-12-10T06:09:32;46.58;;;21.95;;
34805;SDS011;65084;42.196;25.326;2022-12-10T06:12:00;47.15;;;21.80;;
34805;SDS011;65084;42.196;25.326;2022-12-10T06:14:27;47.67;;;22.73;;
34805;SDS011;65084;42.196;25.326;2022-12-10T06:16:54;48.25;;;22.20;;
34805;SDS011;65084;42.196;25.326;2022-12-10T06:19:22;42.85;;;22.02;;
34805;SDS011;65084;42.196;25.326;2022-12-10T06:21:49;42.88;;;21.15;;
34805;SDS011;65084;42.196;25.326;2022-12-10T06:24:16;41.97;;;20.05;;
34805;SDS011;65084;42.196;25.326;2022-12-10T06:26:45;36.50;;;19.27;;
34805;SDS011;65084;42.196;25.326;2022-12-10T06:29:13;52.72;;;22.70;;
34805;SDS011;65084;42.196;25.326;2022-12-10T06:31:40;50.20;;;21.45;;
34805;SDS011;65084;42.196;25.326;2022-12-10T06:34:07;43.20;;;21.88;;
34805;SDS011;65084;42.196;25.326;2022-12-10T06:36:35;56.38;;;21.65;;
34805;SDS011;65084;42.196;25.326;2022-12-10T06:39:02;49.22;;;22.52;;
34805;SDS011;65084;42.196;25.326;2022-12-10T06:41:29;45.08;;;20.92;;
34805;SDS011;65084;42.196;25.326;2022-12-10T06:43:58;47.33;;;18.67;;
34805;SDS011;65084;42.196;25.326;2022-12-10T06:46:26;59.25;;;23.27;;
34805;SDS011;65084;42.196;25.326;2022-12-10T06:48:54;40.53;;;20.48;;
34805;SDS011;65084;42.196;25.326;2022-12-10T06:51:21;39.90;;;19.55;;
34805;SDS011;65084;42.196;25.326;2022-12-10T06:53:49;42.78;;;19.13;;
34805;SDS011;65084;42.196;25.326;2022-12-10T06:56:17;46.97;;;21.58;;
34805;SDS011;65084;42.196;25.326;2022-12-10T06:58:44;46.60;;;21.15;;
34805;SDS011;65084;42.196;25.326;2022-12-10T07:01:14;42.88;;;21.23;;
34805;SDS011;65084;42.196;25.326;2022-12-10T07:03:42;53.78;;;23.98;;
34805;SDS011;65084;42.196;25.326;2022-12-10T07:06:10;46.75;;;19.67;;
34805;SDS011;65084;42.196;25.326;2022-12-10T07:08:38;43.85;;;20.33;;
34805;SDS011;65084;42.196;25.326;2022-12-10T07:11:05;38.58;;;18.15;;
34805;SDS011;65084;42.196;25.326;2022-12-10T07:13:33;47.17;;;21.33;;
34805;SDS011;65084;42.196;25.326;2022-12-10T07:16:00;39.25;;;19.80;;
34805;SDS011;65084;42.196;25.326;2022-12-10T07:18:29;37.53;;;19.02;;
34805;SDS011;65084;42.196;25.326;2022-12-10T07:20:56;42.22;;;19.60;;
34805;SDS011;65084;42.196;25.326;2022-12-10T07:23:24;38.80;;;19.08;;
34805;SDS011;65084;42.196;25.326;2022-12-10T07:25:53;40.22;;;21.27;;
34805;SDS011;65084;42.196;25.326;2022-12-10T07:28:21;40.65;;;20.60;;
34805;SDS011;65084;42.196;25.326;2022-12-10T07:30:48;59.10;;;31.38;;
34805;SDS011;65084;42.196;25.326;2022-12-10T07:33:15;130.55;;;68.43;;
34805;SDS011;65084;42.196;25.326;2022-12-10T07:35:44;73.18;;;39.35;;
34805;SDS011;65084;42.196;25.326;2022-12-10T07:38:12;59.13;;;32.63;;
34805;SDS011;65084;42.196;25.326;2022-12-10T07:40:39;42.08;;;21.10;;
34805;SDS011;65084;42.196;25.326;2022-12-10T07:43:06;73.70;;;36.95;;
34805;SDS011;65084;42.196;25.326;2022-12-10T07:45:33;38.28;;;19.67;;
34805;SDS011;65084;42.196;25.326;2022-12-10T07:48:01;42.40;;;23.60;;
34805;SDS011;65084;42.196;25.326;2022-12-10T07:50:28;46.13;;;26.88;;
34805;SDS011;65084;42.196;25.326;2022-12-10T07:52:57;40.10;;;21.67;;
34805;SDS011;65084;42.196;25.326;2022-12-10T07:55:24;41.20;;;21.67;;
34805;SDS011;65084;42.196;25.326;2022-12-10T07:57:51;41.10;;;21.50;;
34805;SDS011;65084;42.196;25.326;2022-12-10T08:00:18;39.70;;;22.98;;
34805;SDS011;65084;42.196;25.326;2022-12-10T08:02:46;41.47;;;22.58;;
34805;SDS011;65084;42.196;25.326;2022-12-10T08:05:13;36.10;;;19.85;;
34805;SDS011;65084;42.196;25.326;2022-12-10T08:07:40;30.05;;;17.08;;
34805;SDS011;65084;42.196;25.326;2022-12-10T08:10:09;30.52;;;18.13;;
34805;SDS011;65084;42.196;25.326;2022-12-10T08:12:36;31.52;;;18.52;;
34805;SDS011;65084;42.196;25.326;2022-12-10T08:15:04;31.42;;;18.35;;
34805;SDS011;65084;42.196;25.326;2022-12-10T08:17:31;30.55;;;17.27;;
34805;SDS011;65084;42.196;25.326;2022-12-10T08:20:01;33.85;;;17.35;;
34805;SDS011;65084;42.196;25.326;2022-12-10T08:22:29;30.35;;;16.75;;
34805;SDS011;65084;42.196;25.326;2022-12-10T08:24:58;36.00;;;18.05;;
34805;SDS011;65084;42.196;25.326;2022-12-10T08:27:26;32.55;;;18.30;;
34805;SDS011;65084;42.196;25.326;2022-12-10T08:29:54;31.42;;;16.52;;
34805;SDS011;65084;42.196;25.326;2022-12-10T08:32:21;31.95;;;16.38;;
34805;SDS011;65084;42.196;25.326;2022-12-10T08:34:49;27.77;;;17.33;;
34805;SDS011;65084;42.196;25.326;2022-12-10T08:37:16;35.50;;;19.10;;
34805;SDS011;65084;42.196;25.326;2022-12-10T08:39:43;26.08;;;16.52;;
34805;SDS011;65084;42.196;25.326;2022-12-10T08:42:10;40.88;;;21.88;;
34805;SDS011;65084;42.196;25.326;2022-12-10T08:44:39;32.85;;;19.52;;
34805;SDS011;65084;42.196;25.326;2022-12-10T08:47:06;28.58;;;16.70;;
34805;SDS011;65084;42.196;25.326;2022-12-10T08:49:34;30.05;;;17.92;;
34805;SDS011;65084;42.196;25.326;2022-12-10T08:52:01;51.35;;;27.67;;
34805;SDS011;65084;42.196;25.326;2022-12-10T08:54:28;30.48;;;16.83;;
34805;SDS011;65084;42.196;25.326;2022-12-10T08:56:56;45.65;;;23.80;;
34805;SDS011;65084;42.196;25.326;2022-12-10T08:59:23;44.20;;;19.17;;
34805;SDS011;65084;42.196;25.326;2022-12-10T09:01:52;54.35;;;20.05;;
34805;SDS011;65084;42.196;25.326;2022-12-10T09:04:19;56.58;;;23.20;;
34805;SDS011;65084;42.196;25.326;2022-12-10T09:06:46;51.10;;;22.73;;
34805;SDS011;65084;42.196;25.326;2022-12-10T09:09:14;43.42;;;22.63;;
34805;SDS011;65084;42.196;25.326;2022-12-10T09:11:41;40.40;;;21.25;;
34805;SDS011;65084;42.196;25.326;2022-12-10T09:14:09;37.72;;;18.45;;
34805;SDS011;65084;42.196;25.326;2022-12-10T09:16:36;33.20;;;17.92;;
34805;SDS011;65084;42.196;25.326;2022-12-10T09:19:05;37.00;;;17.63;;
34805;SDS011;65084;42.196;25.326;2022-12-10T09:21:33;36.97;;;18.65;;
34805;SDS011;65084;42.196;25.326;2022-12-10T09:24:00;41.53;;;22.42;;
34805;SDS011;65084;42.196;25.326;2022-12-10T09:26:27;38.38;;;21.35;;
34805;SDS011;65084;42.196;25.326;2022-12-10T09:28:55;30.45;;;18.33;;
34805;SDS011;65084;42.196;25.326;2022-12-10T09:31:23;31.58;;;17.70;;
34805;SDS011;65084;42.196;25.326;2022-12-10T09:33:51;37.95;;;20.20;;
34805;SDS011;65084;42.196;25.326;2022-12-10T09:36:20;32.80;;;19.02;;
34805;SDS011;65084;42.196;25.326;2022-12-10T09:38:48;32.30;;;18.95;;
34805;SDS011;65084;42.196;25.326;2022-12-10T09:41:36;42.03;;;19.60;;
34805;SDS011;65084;42.196;25.326;2022-12-10T09:44:05;40.65;;;20.77;;
34805;SDS011;65084;42.196;25.326;2022-12-10T09:46:37;41.17;;;20.35;;
34805;SDS011;65084;42.196;25.326;2022-12-10T09:49:09;43.80;;;20.35;;
34805;SDS011;65084;42.196;25.326;2022-12-10T09:51:41;42.60;;;20.13;;
34805;SDS011;65084;42.196;25.326;2022-12-10T09:54:11;43.78;;;19.27;;
34805;SDS011;65084;42.196;25.326;2022-12-10T09:59:46;41.17;;;19.60;;
34805;SDS011;65084;42.196;25.326;2022-12-10T10:02:19;53.78;;;23.15;;
34805;SDS011;65084;42.196;25.326;2022-12-10T10:04:47;47.45;;;21.63;;
34805;SDS011;65084;42.196;25.326;2022-12-10T10:07:19;40.60;;;20.02;;
34805;SDS011;65084;42.196;25.326;2022-12-10T10:09:46;49.50;;;23.05;;
34805;SDS011;65084;42.196;25.326;2022-12-10T10:12:14;42.97;;;22.73;;
34805;SDS011;65084;42.196;25.326;2022-12-10T10:14:42;69.70;;;26.55;;
34805;SDS011;65084;42.196;25.326;2022-12-10T10:17:10;52.75;;;24.02;;
34805;SDS011;65084;42.196;25.326;2022-12-10T10:19:38;48.70;;;24.42;;
34805;SDS011;65084;42.196;25.326;2022-12-10T10:22:06;54.70;;;25.70;;
34805;SDS011;65084;42.196;25.326;2022-12-10T10:24:38;50.95;;;24.88;;
34805;SDS011;65084;42.196;25.326;2022-12-10T10:27:10;54.40;;;27.65;;
34805;SDS011;65084;42.196;25.326;2022-12-10T10:29:38;41.20;;;21.42;;
34805;SDS011;65084;42.196;25.326;2022-12-10T10:32:10;38.42;;;18.85;;
34805;SDS011;65084;42.196;25.326;2022-12-10T10:34:38;34.95;;;18.13;;
34805;SDS011;65084;42.196;25.326;2022-12-10T10:37:06;38.05;;;20.20;;
34805;SDS011;65084;42.196;25.326;2022-12-10T10:39:33;38.95;;;21.00;;
34805;SDS011;65084;42.196;25.326;2022-12-10T10:42:07;33.75;;;19.05;;
34805;SDS011;65084;42.196;25.326;2022-12-10T10:44:36;27.15;;;16.13;;
34805;SDS011;65084;42.196;25.326;2022-12-10T10:47:23;29.23;;;16.85;;
34805;SDS011;65084;42.196;25.326;2022-12-10T10:49:50;106.55;;;61.20;;
34805;SDS011;65084;42.196;25.326;2022-12-10T10:52:18;47.97;;;23.40;;
34805;SDS011;65084;42.196;25.326;2022-12-10T10:54:46;31.50;;;17.20;;
34805;SDS011;65084;42.196;25.326;2022-12-10T10:57:17;32.55;;;16.73;;
34805;SDS011;65084;42.196;25.326;2022-12-10T10:59:46;36.88;;;18.55;;
34805;SDS011;65084;42.196;25.326;2022-12-10T11:02:18;35.45;;;20.25;;
34805;SDS011;65084;42.196;25.326;2022-12-10T11:04:46;53.40;;;26.30;;
34805;SDS011;65084;42.196;25.326;2022-12-10T11:07:21;53.00;;;24.45;;
34805;SDS011;65084;42.196;25.326;2022-12-10T11:09:51;38.60;;;22.02;;
34805;SDS011;65084;42.196;25.326;2022-12-10T11:12:32;41.33;;;22.27;;
34805;SDS011;65084;42.196;25.326;2022-12-10T11:15:00;35.97;;;20.92;;
34805;SDS011;65084;42.196;25.326;2022-12-10T11:17:27;36.75;;;19.05;;
34805;SDS011;65084;42.196;25.326;2022-12-10T11:19:56;28.40;;;17.25;;
34805;SDS011;65084;42.196;25.326;2022-12-10T11:22:25;34.40;;;17.48;;
34805;SDS011;65084;42.196;25.326;2022-12-10T11:24:53;36.90;;;19.52;;
34805;SDS011;65084;42.196;25.326;2022-12-10T11:27:35;33.10;;;19.23;;
34805;SDS011;65084;42.196;25.326;2022-12-10T11:30:05;40.10;;;19.67;;
34805;SDS011;65084;42.196;25.326;2022-12-10T11:32:39;33.13;;;19.45;;
34805;SDS011;65084;42.196;25.326;2022-12-10T11:37:36;31.95;;;17.20;;
34805;SDS011;65084;42.196;25.326;2022-12-10T11:40:09;39.28;;;18.00;;
34805;SDS011;65084;42.196;25.326;2022-12-10T11:42:40;33.78;;;18.27;;
34805;SDS011;65084;42.196;25.326;2022-12-10T11:45:10;66.40;;;31.17;;
34805;SDS011;65084;42.196;25.326;2022-12-10T11:47:45;47.58;;;21.75;;
34805;SDS011;65084;42.196;25.326;2022-12-10T11:50:15;45.80;;;24.45;;
34805;SDS011;65084;42.196;25.326;2022-12-10T11:52:49;46.80;;;22.75;;
34805;SDS011;65084;42.196;25.326;2022-12-10T11:55:23;50.50;;;22.00;;
34805;SDS011;65084;42.196;25.326;2022-12-10T11:57:58;43.55;;;22.60;;
34805;SDS011;65084;42.196;25.326;2022-12-10T12:00:32;61.15;;;28.63;;
34805;SDS011;65084;42.196;25.326;2022-12-10T12:03:10;56.13;;;27.40;;
34805;SDS011;65084;42.196;25.326;2022-12-10T12:05:45;66.03;;;30.40;;
34805;SDS011;65084;42.196;25.326;2022-12-10T12:08:16;64.75;;;31.60;;
34805;SDS011;65084;42.196;25.326;2022-12-10T12:10:49;76.18;;;31.63;;
34805;SDS011;65084;42.196;25.326;2022-12-10T12:13:19;61.42;;;28.58;;
34805;SDS011;65084;42.196;25.326;2022-12-10T12:15:49;62.97;;;28.33;;
34805;SDS011;65084;42.196;25.326;2022-12-10T12:18:18;63.83;;;28.35;;
34805;SDS011;65084;42.196;25.326;2022-12-10T12:20:48;62.40;;;31.25;;
34805;SDS011;65084;42.196;25.326;2022-12-10T12:23:19;65.22;;;32.00;;
34805;SDS011;65084;42.196;25.326;2022-12-10T12:25:49;51.35;;;27.33;;
34805;SDS011;65084;42.196;25.326;2022-12-10T12:28:21;60.83;;;26.77;;
34805;SDS011;65084;42.196;25.326;2022-12-10T12:30:51;55.63;;;25.85;;
34805;SDS011;65084;42.196;25.326;2022-12-10T12:33:22;58.72;;;28.90;;
34805;SDS011;65084;42.196;25.326;2022-12-10T12:35:52;54.88;;;26.95;;
34805;SDS011;65084;42.196;25.326;2022-12-10T12:38:26;62.92;;;31.50;;
34805;SDS011;65084;42.196;25.326;2022-12-10T12:40:56;67.10;;;30.48;;
34805;SDS011;65084;42.196;25.326;2022-12-10T12:43:25;76.20;;;34.42;;
34805;SDS011;65084;42.196;25.326;2022-12-10T12:45:55;70.88;;;33.30;;
34805;SDS011;65084;42.196;25.326;2022-12-10T12:48:23;67.45;;;31.20;;
34805;SDS011;65084;42.196;25.326;2022-12-10T12:50:54;76.88;;;30.33;;
34805;SDS011;65084;42.196;25.326;2022-12-10T12:53:25;66.57;;;31.20;;
34805;SDS011;65084;42.196;25.326;2022-12-10T12:55:55;66.50;;;31.63;;
34805;SDS011;65084;42.196;25.326;2022-12-10T12:58:30;65.82;;;31.38;;
34805;SDS011;65084;42.196;25.326;2022-12-10T13:01:03;73.13;;;32.38;;
34805;SDS011;65084;42.196;25.326;2022-12-10T13:03:34;81.07;;;35.17;;
34805;SDS011;65084;42.196;25.326;2022-12-10T13:06:16;79.53;;;35.00;;
34805;SDS011;65084;42.196;25.326;2022-12-10T13:08:45;72.50;;;32.60;;
34805;SDS011;65084;42.196;25.326;2022-12-10T13:11:17;70.82;;;31.55;;
34805;SDS011;65084;42.196;25.326;2022-12-10T13:16:35;71.10;;;32.50;;
34805;SDS011;65084;42.196;25.326;2022-12-10T13:25:05;83.38;;;39.90;;
34805;SDS011;65084;42.196;25.326;2022-12-10T13:27:34;92.03;;;40.20;;
34805;SDS011;65084;42.196;25.326;2022-12-10T13:30:03;96.60;;;43.85;;
34805;SDS011;65084;42.196;25.326;2022-12-10T13:32:45;100.70;;;46.33;;
34805;SDS011;65084;42.196;25.326;2022-12-10T13:35:22;98.90;;;43.90;;
34805;SDS011;65084;42.196;25.326;2022-12-10T13:37:55;99.93;;;46.30;;
34805;SDS011;65084;42.196;25.326;2022-12-10T13:40:24;94.13;;;41.95;;
34805;SDS011;65084;42.196;25.326;2022-12-10T13:42:58;90.28;;;40.15;;
34805;SDS011;65084;42.196;25.326;2022-12-10T13:45:43;91.18;;;37.22;;
34805;SDS011;65084;42.196;25.326;2022-12-10T13:54:06;95.22;;;40.25;;
34805;SDS011;65084;42.196;25.326;2022-12-10T13:56:37;83.00;;;36.95;;
34805;SDS011;65084;42.196;25.326;2022-12-10T13:59:12;107.65;;;44.25;;
34805;SDS011;65084;42.196;25.326;2022-12-10T14:01:42;120.45;;;48.50;;
34805;SDS011;65084;42.196;25.326;2022-12-10T14:06:56;87.07;;;35.63;;
34805;SDS011;65084;42.196;25.326;2022-12-10T14:09:27;100.45;;;45.58;;
34805;SDS011;65084;42.196;25.326;2022-12-10T14:11:58;117.07;;;61.47;;
34805;SDS011;65084;42.196;25.326;2022-12-10T14:14:29;113.30;;;54.97;;
34805;SDS011;65084;42.196;25.326;2022-12-10T14:16:59;102.90;;;48.78;;
34805;SDS011;65084;42.196;25.326;2022-12-10T14:19:27;110.53;;;46.90;;
34805;SDS011;65084;42.196;25.326;2022-12-10T14:21:55;115.13;;;47.72;;
34805;SDS011;65084;42.196;25.326;2022-12-10T14:24:32;162.85;;;53.55;;
34805;SDS011;65084;42.196;25.326;2022-12-10T14:27:00;126.70;;;53.10;;
34805;SDS011;65084;42.196;25.326;2022-12-10T14:29:28;120.68;;;52.72;;
34805;SDS011;65084;42.196;25.326;2022-12-10T14:31:55;135.45;;;58.42;;
34805;SDS011;65084;42.196;25.326;2022-12-10T14:34:24;126.45;;;55.03;;
34805;SDS011;65084;42.196;25.326;2022-12-10T14:36:52;124.82;;;54.10;;
34805;SDS011;65084;42.196;25.326;2022-12-10T14:39:21;118.95;;;47.97;;
34805;SDS011;65084;42.196;25.326;2022-12-10T14:41:50;145.32;;;63.03;;